• Join FlightAware (Why Join?)
  • Login
  • US Flag 
08:59PM EDT


 

Airport Tracker/Info


-or-


 

Live Flight TrackerFlight Track Log ✈ AUB1736 ✈ 24-Aug-2013 ✈ EDDM / MUC - LATI / TIA

Flight Track Log - Related Links

Times and Time Zones

All times are in EDT time to prevent confusion due to time zone crossing. See the AUB1736 flight status page for this flight to view local times or setup timezone preferences in your user account.

Time Position Orientation Groundspeed Altitude Reporting Facility
EDT Latitude Longitude Course Direction KTS MPH feet Rate Location/Type
03:58AM 47.8056 12.5148 138° Southeast  Level Estimated
03:59AM 47.7138 12.6348 139° Southeast  Level Estimated
04:00AM 47.6219 12.7543 139° Southeast  Level Estimated
04:01AM 47.5298 12.8735 139° Southeast  Level Estimated
04:02AM 47.4376 12.9922 139° Southeast  Level Estimated
04:03AM 47.3453 13.1105 139° Southeast  Level Estimated
04:04AM 47.2529 13.2283 139° Southeast  Level Estimated
04:05AM 47.1604 13.3458 139° Southeast  Level Estimated
04:06AM 47.0677 13.4628 139° Southeast  Level Estimated
04:07AM 46.9749 13.5795 139° Southeast  Level Estimated
04:08AM 46.8820 13.6957 139° Southeast  Level Estimated
04:09AM 46.7890 13.8116 140° Southeast  Level Estimated
04:10AM 46.6959 13.9270 140° Southeast  Level Estimated
04:11AM 46.6026 14.0421 140° Southeast  Level Estimated
04:12AM 46.5093 14.1567 140° Southeast  Level Estimated
04:13AM 46.4158 14.2710 140° Southeast  Level Estimated
04:14AM 46.3222 14.3848 140° Southeast  Level Estimated
04:15AM 46.2285 14.4983 140° Southeast  Level Estimated
04:16AM 46.1347 14.6114 140° Southeast  Level Estimated
04:17AM 46.0407 14.7241 140° Southeast  Level Estimated
04:18AM 45.9467 14.8364 140° Southeast  Level Estimated
04:19AM 45.8526 14.9483 140° Southeast  Level Estimated
04:20AM 45.7583 15.0599 140° Southeast  Level Estimated
04:21AM 45.6639 15.1711 141° Southeast  Level Estimated
04:22AM 45.5695 15.2819 141° Southeast  Level Estimated
04:23AM 45.4749 15.3923 141° Southeast  Level Estimated
04:24AM 45.3802 15.5024 141° Southeast  Level Estimated
04:25AM 45.2854 15.6121 141° Southeast  Level Estimated
04:26AM 45.1905 15.7214 141° Southeast  Level Estimated
04:27AM 45.0955 15.8304 141° Southeast  Level Estimated
04:28AM 45.0004 15.9390 141° Southeast  Level Estimated
04:29AM 44.9052 16.0473 141° Southeast  Level Estimated
04:30AM 44.8099 16.1551 141° Southeast  Level Estimated
04:31AM 44.7145 16.2627 141° Southeast  Level Estimated
04:32AM 44.6190 16.3699 141° Southeast  Level Estimated
04:33AM 44.5234 16.4767 141° Southeast  Level Estimated
04:34AM 44.4277 16.5831 142° Southeast  Level Estimated
04:35AM 44.3319 16.6893 142° Southeast  Level Estimated
04:36AM 44.2360 16.7950 142° Southeast  Level Estimated
04:37AM 44.1400 16.9005 142° Southeast  Level Estimated
04:38AM 44.0439 17.0056 142° Southeast  Level Estimated
04:39AM 43.9477 17.1103 142° Southeast  Level Estimated
04:40AM 43.8514 17.2147 142° Southeast  Level Estimated
04:41AM 43.7550 17.3188 142° Southeast  Level Estimated
04:42AM 43.6585 17.4226 142° Southeast  Level Estimated
04:43AM 43.5620 17.5260 142° Southeast  Level Estimated
04:44AM 43.4653 17.6290 142° Southeast  Level Estimated
04:45AM 43.3685 17.7318 142° Southeast  Level Estimated
04:46AM 43.2614 17.8451 142° Southeast  Level Estimated
04:47AM 43.1542 17.9579 142° Southeast  Level Estimated
04:48AM 43.0468 18.0704 143° Southeast  Level Estimated
04:49AM 42.9394 18.1825 143° Southeast  Level Estimated
04:50AM 42.8318 18.2942 143° Southeast  Level Estimated
04:51AM 42.7241 18.4055 143° Southeast  Level Estimated
04:52AM 42.6163 18.5164 143° Southeast  Level Estimated
04:53AM 42.5084 18.6269 143° Southeast  Level Estimated
04:54AM 42.4005 18.7371 143° Southeast  Level Estimated
04:55AM 42.2924 18.8468 143° Southeast  Level Estimated
04:56AM 42.1842 18.9562 143° Southeast  Level Estimated
04:57AM 42.0758 19.0652 143° Southeast  Level Estimated
04:58AM 41.9674 19.1739 143° Southeast  Level Estimated
04:59AM 41.8589 19.2822 143° Southeast  Level Estimated
05:00AM 41.7503 19.3901 143° Southeast  Level Estimated
05:01AM 41.6416 19.4976 144° Southeast  Level Estimated
05:02AM 41.5328 19.6048 144° Southeast  Level Estimated
05:03AM 41.4239 19.7116 144° Southeast  Level Estimated
05:04AM 41.4147 19.7206 144° Southeast  Level Estimated
05:05AM 41.4147 19.7206 21° North  Level Estimated
05:06AM 41.4147 19.7206 21° North  Level Estimated
05:07AM 41.4147 19.7206 21° North  Level Estimated
05:08AM 41.4147 19.7206 21° North  Level Estimated
05:09AM 41.4147 19.7206 21° North  Level Estimated
05:10AM 41.4147 19.7206 21° North  Level Estimated
05:11AM 41.4147 19.7206 21° North  Level Estimated
05:12AM 41.4147 19.7206 21° North  Level Estimated
05:13AM 41.4147 19.7206 21° North  Level Estimated
05:14AM 41.4147 19.7206 21° North  Level Estimated
05:15AM 41.4147 19.7206 21° North  Level Estimated
05:16AM 41.4147 19.7206 21° North  Level Estimated
05:17AM 41.4147 19.7206 21° North  Level Estimated
05:18AM 41.4147 19.7206 21° North  Level Estimated
05:19AM 41.4147 19.7206 21° North  Level Estimated
05:20AM 41.4147 19.7206 21° North  Level Estimated
05:21AM 41.4147 19.7206 21° North  Level Estimated
05:22AM 41.4147 19.7206 21° North  Level Estimated